sensor_id;sensor_type;location;lat;lon;timestamp;P1;durP1;ratioP1;P2;durP2;ratioP2
7359;SDS011;3720;48.274;7.796;2023-12-20T00:02:20;6.80;;;3.75;;
7359;SDS011;3720;48.274;7.796;2023-12-20T00:04:53;6.30;;;3.80;;
7359;SDS011;3720;48.274;7.796;2023-12-20T00:07:25;5.50;;;3.90;;
7359;SDS011;3720;48.274;7.796;2023-12-20T00:09:57;5.35;;;3.83;;
7359;SDS011;3720;48.274;7.796;2023-12-20T00:12:29;6.88;;;3.80;;
7359;SDS011;3720;48.274;7.796;2023-12-20T00:15:00;6.60;;;4.10;;
7359;SDS011;3720;48.274;7.796;2023-12-20T00:17:33;6.22;;;4.47;;
7359;SDS011;3720;48.274;7.796;2023-12-20T00:20:06;6.55;;;4.38;;
7359;SDS011;3720;48.274;7.796;2023-12-20T00:22:39;5.57;;;4.30;;
7359;SDS011;3720;48.274;7.796;2023-12-20T00:25:11;8.63;;;4.60;;
7359;SDS011;3720;48.274;7.796;2023-12-20T00:27:43;6.65;;;4.55;;
7359;SDS011;3720;48.274;7.796;2023-12-20T00:30:14;6.43;;;4.70;;
7359;SDS011;3720;48.274;7.796;2023-12-20T00:32:46;6.57;;;4.53;;
7359;SDS011;3720;48.274;7.796;2023-12-20T00:35:20;6.97;;;4.38;;
7359;SDS011;3720;48.274;7.796;2023-12-20T00:37:51;5.82;;;4.28;;
7359;SDS011;3720;48.274;7.796;2023-12-20T00:40:23;6.97;;;4.07;;
7359;SDS011;3720;48.274;7.796;2023-12-20T00:42:55;6.47;;;4.40;;
7359;SDS011;3720;48.274;7.796;2023-12-20T00:45:27;5.85;;;4.07;;
7359;SDS011;3720;48.274;7.796;2023-12-20T00:47:59;6.25;;;4.00;;
7359;SDS011;3720;48.274;7.796;2023-12-20T00:50:32;5.82;;;4.10;;
7359;SDS011;3720;48.274;7.796;2023-12-20T00:53:04;4.93;;;4.03;;
7359;SDS011;3720;48.274;7.796;2023-12-20T00:55:36;9.48;;;4.18;;
7359;SDS011;3720;48.274;7.796;2023-12-20T00:58:07;5.78;;;4.07;;
7359;SDS011;3720;48.274;7.796;2023-12-20T01:00:39;6.93;;;4.07;;
7359;SDS011;3720;48.274;7.796;2023-12-20T01:03:12;6.15;;;3.97;;
7359;SDS011;3720;48.274;7.796;2023-12-20T01:05:46;5.95;;;3.92;;
7359;SDS011;3720;48.274;7.796;2023-12-20T01:08:18;6.03;;;3.70;;
7359;SDS011;3720;48.274;7.796;2023-12-20T01:10:50;5.72;;;3.70;;
7359;SDS011;3720;48.274;7.796;2023-12-20T01:13:22;6.22;;;3.83;;
7359;SDS011;3720;48.274;7.796;2023-12-20T01:15:53;4.68;;;3.45;;
7359;SDS011;3720;48.274;7.796;2023-12-20T01:18:26;4.68;;;3.28;;
7359;SDS011;3720;48.274;7.796;2023-12-20T01:21:02;6.05;;;3.88;;
7359;SDS011;3720;48.274;7.796;2023-12-20T01:23:34;3.83;;;3.10;;
7359;SDS011;3720;48.274;7.796;2023-12-20T01:26:06;4.63;;;3.33;;
7359;SDS011;3720;48.274;7.796;2023-12-20T01:28:38;4.40;;;3.30;;
7359;SDS011;3720;48.274;7.796;2023-12-20T01:31:10;5.45;;;3.45;;
7359;SDS011;3720;48.274;7.796;2023-12-20T01:33:41;4.82;;;3.67;;
7359;SDS011;3720;48.274;7.796;2023-12-20T01:36:15;6.00;;;3.30;;
7359;SDS011;3720;48.274;7.796;2023-12-20T01:38:46;5.07;;;3.45;;
7359;SDS011;3720;48.274;7.796;2023-12-20T01:41:18;5.65;;;3.70;;
7359;SDS011;3720;48.274;7.796;2023-12-20T01:43:50;4.97;;;3.58;;
7359;SDS011;3720;48.274;7.796;2023-12-20T01:46:23;5.47;;;3.90;;
7359;SDS011;3720;48.274;7.796;2023-12-20T01:48:55;5.03;;;3.60;;
7359;SDS011;3720;48.274;7.796;2023-12-20T01:51:28;4.85;;;3.75;;
7359;SDS011;3720;48.274;7.796;2023-12-20T01:54:00;5.53;;;3.83;;
7359;SDS011;3720;48.274;7.796;2023-12-20T01:56:32;5.82;;;3.97;;
7359;SDS011;3720;48.274;7.796;2023-12-20T01:59:05;6.53;;;4.13;;
7359;SDS011;3720;48.274;7.796;2023-12-20T02:01:39;6.43;;;3.97;;
7359;SDS011;3720;48.274;7.796;2023-12-20T02:04:11;5.82;;;4.15;;
7359;SDS011;3720;48.274;7.796;2023-12-20T02:06:44;4.65;;;3.80;;
7359;SDS011;3720;48.274;7.796;2023-12-20T02:09:17;5.80;;;3.75;;
7359;SDS011;3720;48.274;7.796;2023-12-20T02:11:49;4.95;;;3.75;;
7359;SDS011;3720;48.274;7.796;2023-12-20T02:14:21;6.47;;;3.75;;
7359;SDS011;3720;48.274;7.796;2023-12-20T02:16:53;5.03;;;3.40;;
7359;SDS011;3720;48.274;7.796;2023-12-20T02:19:25;5.18;;;3.67;;
7359;SDS011;3720;48.274;7.796;2023-12-20T02:22:08;5.22;;;3.40;;
7359;SDS011;3720;48.274;7.796;2023-12-20T02:24:40;5.22;;;3.47;;
7359;SDS011;3720;48.274;7.796;2023-12-20T02:27:12;5.53;;;3.67;;
7359;SDS011;3720;48.274;7.796;2023-12-20T02:29:45;4.80;;;3.65;;
7359;SDS011;3720;48.274;7.796;2023-12-20T02:32:18;6.18;;;3.60;;
7359;SDS011;3720;48.274;7.796;2023-12-20T02:34:51;4.80;;;3.42;;
7359;SDS011;3720;48.274;7.796;2023-12-20T02:37:25;4.93;;;3.28;;
7359;SDS011;3720;48.274;7.796;2023-12-20T02:39:56;6.65;;;3.60;;
7359;SDS011;3720;48.274;7.796;2023-12-20T02:42:28;5.93;;;3.15;;
7359;SDS011;3720;48.274;7.796;2023-12-20T02:45:00;4.50;;;3.08;;
7359;SDS011;3720;48.274;7.796;2023-12-20T02:47:32;3.95;;;3.03;;
7359;SDS011;3720;48.274;7.796;2023-12-20T02:50:03;3.70;;;2.80;;
7359;SDS011;3720;48.274;7.796;2023-12-20T02:52:37;5.35;;;2.90;;
7359;SDS011;3720;48.274;7.796;2023-12-20T02:55:09;3.35;;;2.75;;
7359;SDS011;3720;48.274;7.796;2023-12-20T02:57:41;5.53;;;2.90;;
7359;SDS011;3720;48.274;7.796;2023-12-20T03:00:13;4.50;;;2.72;;
7359;SDS011;3720;48.274;7.796;2023-12-20T03:02:45;4.35;;;2.95;;
7359;SDS011;3720;48.274;7.796;2023-12-20T03:05:17;3.72;;;2.85;;
7359;SDS011;3720;48.274;7.796;2023-12-20T03:07:50;3.60;;;2.72;;
7359;SDS011;3720;48.274;7.796;2023-12-20T03:10:22;4.00;;;2.88;;
7359;SDS011;3720;48.274;7.796;2023-12-20T03:12:53;4.45;;;2.90;;
7359;SDS011;3720;48.274;7.796;2023-12-20T03:15:25;3.92;;;2.60;;
7359;SDS011;3720;48.274;7.796;2023-12-20T03:17:57;3.38;;;2.78;;
7359;SDS011;3720;48.274;7.796;2023-12-20T03:20:29;3.72;;;2.70;;
7359;SDS011;3720;48.274;7.796;2023-12-20T03:23:15;4.00;;;2.80;;
7359;SDS011;3720;48.274;7.796;2023-12-20T03:25:47;3.78;;;2.78;;
7359;SDS011;3720;48.274;7.796;2023-12-20T03:28:19;4.38;;;2.65;;
7359;SDS011;3720;48.274;7.796;2023-12-20T03:30:50;3.30;;;2.60;;
7359;SDS011;3720;48.274;7.796;2023-12-20T03:33:22;3.45;;;2.47;;
7359;SDS011;3720;48.274;7.796;2023-12-20T03:35:54;2.92;;;2.50;;
7359;SDS011;3720;48.274;7.796;2023-12-20T03:38:27;3.83;;;2.72;;
7359;SDS011;3720;48.274;7.796;2023-12-20T03:40:59;5.18;;;2.50;;
7359;SDS011;3720;48.274;7.796;2023-12-20T03:43:31;2.55;;;2.35;;
7359;SDS011;3720;48.274;7.796;2023-12-20T03:46:03;3.60;;;2.60;;
7359;SDS011;3720;48.274;7.796;2023-12-20T03:48:35;3.85;;;2.63;;
7359;SDS011;3720;48.274;7.796;2023-12-20T03:51:06;3.53;;;2.70;;
7359;SDS011;3720;48.274;7.796;2023-12-20T03:53:40;4.05;;;2.63;;
7359;SDS011;3720;48.274;7.796;2023-12-20T03:56:12;3.10;;;2.78;;
7359;SDS011;3720;48.274;7.796;2023-12-20T03:58:43;3.28;;;2.55;;
7359;SDS011;3720;48.274;7.796;2023-12-20T04:01:15;3.55;;;2.90;;
7359;SDS011;3720;48.274;7.796;2023-12-20T04:03:47;3.05;;;2.58;;
7359;SDS011;3720;48.274;7.796;2023-12-20T04:06:19;3.50;;;2.80;;
7359;SDS011;3720;48.274;7.796;2023-12-20T04:08:52;5.30;;;2.95;;
7359;SDS011;3720;48.274;7.796;2023-12-20T04:11:24;3.28;;;2.80;;
7359;SDS011;3720;48.274;7.796;2023-12-20T04:13:55;3.50;;;2.88;;
7359;SDS011;3720;48.274;7.796;2023-12-20T04:16:27;3.10;;;2.78;;
7359;SDS011;3720;48.274;7.796;2023-12-20T04:18:59;4.57;;;2.80;;
7359;SDS011;3720;48.274;7.796;2023-12-20T04:21:31;3.58;;;2.58;;
7359;SDS011;3720;48.274;7.796;2023-12-20T04:24:05;3.22;;;2.60;;
7359;SDS011;3720;48.274;7.796;2023-12-20T04:26:37;3.75;;;2.58;;
7359;SDS011;3720;48.274;7.796;2023-12-20T04:29:09;3.63;;;2.55;;
7359;SDS011;3720;48.274;7.796;2023-12-20T04:31:40;3.15;;;2.55;;
7359;SDS011;3720;48.274;7.796;2023-12-20T04:34:12;3.10;;;2.67;;
7359;SDS011;3720;48.274;7.796;2023-12-20T04:36:44;4.43;;;2.47;;
7359;SDS011;3720;48.274;7.796;2023-12-20T04:39:17;3.53;;;2.30;;
7359;SDS011;3720;48.274;7.796;2023-12-20T04:41:49;3.97;;;2.60;;
7359;SDS011;3720;48.274;7.796;2023-12-20T04:44:21;3.25;;;2.40;;
7359;SDS011;3720;48.274;7.796;2023-12-20T04:46:53;2.95;;;2.05;;
7359;SDS011;3720;48.274;7.796;2023-12-20T04:49:26;2.90;;;2.10;;
7359;SDS011;3720;48.274;7.796;2023-12-20T04:51:58;2.60;;;2.03;;
7359;SDS011;3720;48.274;7.796;2023-12-20T04:54:31;2.03;;;1.83;;
7359;SDS011;3720;48.274;7.796;2023-12-20T04:57:03;2.38;;;1.80;;
7359;SDS011;3720;48.274;7.796;2023-12-20T04:59:35;2.33;;;1.70;;
7359;SDS011;3720;48.274;7.796;2023-12-20T05:02:07;1.80;;;1.60;;
7359;SDS011;3720;48.274;7.796;2023-12-20T05:04:39;1.75;;;1.50;;
7359;SDS011;3720;48.274;7.796;2023-12-20T05:07:11;2.03;;;1.73;;
7359;SDS011;3720;48.274;7.796;2023-12-20T05:09:44;1.70;;;1.60;;
7359;SDS011;3720;48.274;7.796;2023-12-20T05:12:16;1.80;;;1.50;;
7359;SDS011;3720;48.274;7.796;2023-12-20T05:14:48;2.15;;;1.52;;
7359;SDS011;3720;48.274;7.796;2023-12-20T05:17:20;2.00;;;1.52;;
7359;SDS011;3720;48.274;7.796;2023-12-20T05:19:51;1.90;;;1.50;;
7359;SDS011;3720;48.274;7.796;2023-12-20T05:22:23;1.60;;;1.50;;
7359;SDS011;3720;48.274;7.796;2023-12-20T05:24:56;1.60;;;1.50;;
7359;SDS011;3720;48.274;7.796;2023-12-20T05:27:28;2.75;;;1.73;;
7359;SDS011;3720;48.274;7.796;2023-12-20T05:30:00;2.63;;;1.65;;
7359;SDS011;3720;48.274;7.796;2023-12-20T05:32:32;2.05;;;1.52;;
7359;SDS011;3720;48.274;7.796;2023-12-20T05:35:04;2.00;;;1.65;;
7359;SDS011;3720;48.274;7.796;2023-12-20T05:37:36;2.33;;;1.75;;
7359;SDS011;3720;48.274;7.796;2023-12-20T05:40:10;2.22;;;1.70;;
7359;SDS011;3720;48.274;7.796;2023-12-20T05:42:42;2.35;;;1.95;;
7359;SDS011;3720;48.274;7.796;2023-12-20T05:45:14;3.10;;;1.90;;
7359;SDS011;3720;48.274;7.796;2023-12-20T05:47:46;2.38;;;1.90;;
7359;SDS011;3720;48.274;7.796;2023-12-20T05:50:18;2.63;;;1.90;;
7359;SDS011;3720;48.274;7.796;2023-12-20T05:52:51;2.42;;;2.00;;
7359;SDS011;3720;48.274;7.796;2023-12-20T05:55:25;3.78;;;2.33;;
7359;SDS011;3720;48.274;7.796;2023-12-20T05:57:56;4.20;;;2.90;;
7359;SDS011;3720;48.274;7.796;2023-12-20T06:00:28;4.65;;;2.70;;
7359;SDS011;3720;48.274;7.796;2023-12-20T06:03:00;3.92;;;2.60;;
7359;SDS011;3720;48.274;7.796;2023-12-20T06:05:32;3.38;;;2.30;;
7359;SDS011;3720;48.274;7.796;2023-12-20T06:08:04;3.40;;;2.28;;
7359;SDS011;3720;48.274;7.796;2023-12-20T06:10:37;2.50;;;1.95;;
7359;SDS011;3720;48.274;7.796;2023-12-20T06:13:10;3.97;;;2.00;;
7359;SDS011;3720;48.274;7.796;2023-12-20T06:15:43;2.63;;;1.83;;
7359;SDS011;3720;48.274;7.796;2023-12-20T06:18:15;2.28;;;1.75;;
7359;SDS011;3720;48.274;7.796;2023-12-20T06:20:46;2.22;;;1.67;;
7359;SDS011;3720;48.274;7.796;2023-12-20T06:23:18;2.13;;;1.70;;
7359;SDS011;3720;48.274;7.796;2023-12-20T06:25:51;3.00;;;2.10;;
7359;SDS011;3720;48.274;7.796;2023-12-20T06:28:23;2.85;;;2.05;;
7359;SDS011;3720;48.274;7.796;2023-12-20T06:30:55;2.35;;;1.80;;
7359;SDS011;3720;48.274;7.796;2023-12-20T06:33:27;1.50;;;1.38;;
7359;SDS011;3720;48.274;7.796;2023-12-20T06:35:59;1.98;;;1.52;;
7359;SDS011;3720;48.274;7.796;2023-12-20T06:38:31;1.55;;;1.30;;
7359;SDS011;3720;48.274;7.796;2023-12-20T06:41:04;2.78;;;1.70;;
7359;SDS011;3720;48.274;7.796;2023-12-20T06:43:37;2.30;;;1.98;;
7359;SDS011;3720;48.274;7.796;2023-12-20T06:46:09;2.42;;;2.10;;
7359;SDS011;3720;48.274;7.796;2023-12-20T06:48:43;3.45;;;2.10;;
7359;SDS011;3720;48.274;7.796;2023-12-20T06:51:15;2.72;;;1.98;;
7359;SDS011;3720;48.274;7.796;2023-12-20T06:53:47;2.35;;;1.80;;
7359;SDS011;3720;48.274;7.796;2023-12-20T06:56:20;4.22;;;2.38;;
7359;SDS011;3720;48.274;7.796;2023-12-20T06:58:52;3.65;;;2.20;;
7359;SDS011;3720;48.274;7.796;2023-12-20T07:01:24;2.55;;;2.10;;
7359;SDS011;3720;48.274;7.796;2023-12-20T07:03:56;2.67;;;1.60;;
7359;SDS011;3720;48.274;7.796;2023-12-20T07:06:28;2.10;;;1.42;;
7359;SDS011;3720;48.274;7.796;2023-12-20T07:08:59;1.55;;;1.45;;
7359;SDS011;3720;48.274;7.796;2023-12-20T07:11:33;1.92;;;1.40;;
7359;SDS011;3720;48.274;7.796;2023-12-20T07:14:04;1.52;;;1.30;;
7359;SDS011;3720;48.274;7.796;2023-12-20T07:16:36;2.40;;;1.50;;
7359;SDS011;3720;48.274;7.796;2023-12-20T07:19:08;3.17;;;1.65;;
7359;SDS011;3720;48.274;7.796;2023-12-20T07:21:40;2.30;;;1.70;;
7359;SDS011;3720;48.274;7.796;2023-12-20T07:24:12;1.88;;;1.60;;
7359;SDS011;3720;48.274;7.796;2023-12-20T07:26:45;2.30;;;1.90;;
7359;SDS011;3720;48.274;7.796;2023-12-20T07:29:17;4.45;;;2.13;;
7359;SDS011;3720;48.274;7.796;2023-12-20T07:31:48;2.20;;;1.80;;
7359;SDS011;3720;48.274;7.796;2023-12-20T07:34:22;2.47;;;1.58;;
7359;SDS011;3720;48.274;7.796;2023-12-20T07:36:53;2.53;;;1.77;;
7359;SDS011;3720;48.274;7.796;2023-12-20T07:39:25;2.50;;;1.90;;
7359;SDS011;3720;48.274;7.796;2023-12-20T07:41:58;2.13;;;1.67;;
7359;SDS011;3720;48.274;7.796;2023-12-20T07:44:30;2.20;;;1.50;;
7359;SDS011;3720;48.274;7.796;2023-12-20T07:47:02;3.00;;;2.00;;
7359;SDS011;3720;48.274;7.796;2023-12-20T07:49:34;3.88;;;1.80;;
7359;SDS011;3720;48.274;7.796;2023-12-20T07:52:06;3.30;;;1.77;;
7359;SDS011;3720;48.274;7.796;2023-12-20T07:54:38;2.13;;;1.60;;
7359;SDS011;3720;48.274;7.796;2023-12-20T07:57:12;2.45;;;1.88;;
7359;SDS011;3720;48.274;7.796;2023-12-20T07:59:43;3.13;;;1.67;;
7359;SDS011;3720;48.274;7.796;2023-12-20T08:02:15;3.42;;;1.70;;
7359;SDS011;3720;48.274;7.796;2023-12-20T08:04:47;4.38;;;2.17;;
7359;SDS011;3720;48.274;7.796;2023-12-20T08:07:19;5.95;;;2.50;;
7359;SDS011;3720;48.274;7.796;2023-12-20T08:09:51;5.15;;;2.50;;
7359;SDS011;3720;48.274;7.796;2023-12-20T08:12:26;2.88;;;2.05;;
7359;SDS011;3720;48.274;7.796;2023-12-20T08:14:58;4.75;;;2.38;;
7359;SDS011;3720;48.274;7.796;2023-12-20T08:17:30;3.47;;;2.10;;
7359;SDS011;3720;48.274;7.796;2023-12-20T08:20:02;2.72;;;1.90;;
7359;SDS011;3720;48.274;7.796;2023-12-20T08:22:34;3.08;;;1.77;;
7359;SDS011;3720;48.274;7.796;2023-12-20T08:25:06;2.88;;;1.88;;
7359;SDS011;3720;48.274;7.796;2023-12-20T08:27:41;2.05;;;1.73;;
7359;SDS011;3720;48.274;7.796;2023-12-20T08:30:13;3.45;;;2.17;;
7359;SDS011;3720;48.274;7.796;2023-12-20T08:32:47;3.10;;;2.13;;
7359;SDS011;3720;48.274;7.796;2023-12-20T08:35:19;2.60;;;2.00;;
7359;SDS011;3720;48.274;7.796;2023-12-20T08:37:51;2.65;;;2.00;;
7359;SDS011;3720;48.274;7.796;2023-12-20T08:40:22;3.55;;;2.40;;
7359;SDS011;3720;48.274;7.796;2023-12-20T08:42:56;4.10;;;2.65;;
7359;SDS011;3720;48.274;7.796;2023-12-20T08:45:27;5.07;;;2.50;;
7359;SDS011;3720;48.274;7.796;2023-12-20T08:47:59;4.90;;;2.70;;
7359;SDS011;3720;48.274;7.796;2023-12-20T08:50:31;3.40;;;2.70;;
7359;SDS011;3720;48.274;7.796;2023-12-20T08:53:03;4.95;;;3.00;;
7359;SDS011;3720;48.274;7.796;2023-12-20T08:55:35;9.65;;;4.80;;
7359;SDS011;3720;48.274;7.796;2023-12-20T08:58:09;8.98;;;4.43;;
7359;SDS011;3720;48.274;7.796;2023-12-20T09:00:41;5.60;;;3.60;;
7359;SDS011;3720;48.274;7.796;2023-12-20T09:03:13;5.88;;;3.30;;
7359;SDS011;3720;48.274;7.796;2023-12-20T09:05:44;4.35;;;3.20;;
7359;SDS011;3720;48.274;7.796;2023-12-20T09:08:16;6.68;;;3.63;;
7359;SDS011;3720;48.274;7.796;2023-12-20T09:10:48;13.48;;;7.63;;
7359;SDS011;3720;48.274;7.796;2023-12-20T09:13:21;6.50;;;3.97;;
7359;SDS011;3720;48.274;7.796;2023-12-20T09:15:58;4.70;;;3.35;;
7359;SDS011;3720;48.274;7.796;2023-12-20T09:18:29;6.63;;;3.83;;
7359;SDS011;3720;48.274;7.796;2023-12-20T09:21:01;6.93;;;3.47;;
7359;SDS011;3720;48.274;7.796;2023-12-20T09:23:33;2.67;;;2.15;;
7359;SDS011;3720;48.274;7.796;2023-12-20T09:26:06;3.25;;;2.00;;
7359;SDS011;3720;48.274;7.796;2023-12-20T09:28:40;4.97;;;2.20;;
7359;SDS011;3720;48.274;7.796;2023-12-20T09:31:12;2.78;;;1.80;;
7359;SDS011;3720;48.274;7.796;2023-12-20T09:33:43;2.40;;;1.65;;
7359;SDS011;3720;48.274;7.796;2023-12-20T09:36:15;3.85;;;1.80;;
7359;SDS011;3720;48.274;7.796;2023-12-20T09:38:47;4.90;;;1.80;;
7359;SDS011;3720;48.274;7.796;2023-12-20T09:41:19;5.15;;;1.90;;
7359;SDS011;3720;48.274;7.796;2023-12-20T09:43:52;9.02;;;1.55;;
7359;SDS011;3720;48.274;7.796;2023-12-20T09:46:27;3.97;;;1.48;;
7359;SDS011;3720;48.274;7.796;2023-12-20T09:49:03;2.47;;;1.50;;
7359;SDS011;3720;48.274;7.796;2023-12-20T09:51:37;4.95;;;1.40;;
7359;SDS011;3720;48.274;7.796;2023-12-20T09:54:09;4.85;;;1.40;;
7359;SDS011;3720;48.274;7.796;2023-12-20T09:56:41;4.15;;;1.48;;
7359;SDS011;3720;48.274;7.796;2023-12-20T09:59:14;2.67;;;1.20;;
7359;SDS011;3720;48.274;7.796;2023-12-20T10:01:46;3.60;;;1.40;;
7359;SDS011;3720;48.274;7.796;2023-12-20T10:04:19;4.85;;;1.50;;
7359;SDS011;3720;48.274;7.796;2023-12-20T10:06:51;3.97;;;1.48;;
7359;SDS011;3720;48.274;7.796;2023-12-20T10:09:23;3.55;;;1.20;;
7359;SDS011;3720;48.274;7.796;2023-12-20T10:11:55;5.40;;;1.45;;
7359;SDS011;3720;48.274;7.796;2023-12-20T10:14:28;3.38;;;1.27;;
7359;SDS011;3720;48.274;7.796;2023-12-20T10:17:01;4.72;;;1.60;;
7359;SDS011;3720;48.274;7.796;2023-12-20T10:19:34;4.10;;;1.30;;
7359;SDS011;3720;48.274;7.796;2023-12-20T10:22:06;4.97;;;1.45;;
7359;SDS011;3720;48.274;7.796;2023-12-20T10:24:37;3.88;;;1.30;;
7359;SDS011;3720;48.274;7.796;2023-12-20T10:27:11;4.25;;;1.40;;
7359;SDS011;3720;48.274;7.796;2023-12-20T10:29:44;3.78;;;1.38;;
7359;SDS011;3720;48.274;7.796;2023-12-20T10:32:22;3.95;;;1.58;;
7359;SDS011;3720;48.274;7.796;2023-12-20T10:34:56;4.25;;;1.33;;
7359;SDS011;3720;48.274;7.796;2023-12-20T10:37:29;4.47;;;1.40;;
7359;SDS011;3720;48.274;7.796;2023-12-20T10:40:01;3.25;;;1.30;;
7359;SDS011;3720;48.274;7.796;2023-12-20T10:42:36;4.75;;;1.50;;
7359;SDS011;3720;48.274;7.796;2023-12-20T10:45:12;5.70;;;1.50;;
7359;SDS011;3720;48.274;7.796;2023-12-20T10:47:46;5.13;;;1.50;;
7359;SDS011;3720;48.274;7.796;2023-12-20T10:50:18;5.25;;;1.30;;
7359;SDS011;3720;48.274;7.796;2023-12-20T10:52:51;7.40;;;1.50;;
7359;SDS011;3720;48.274;7.796;2023-12-20T10:55:25;4.68;;;1.50;;
7359;SDS011;3720;48.274;7.796;2023-12-20T10:57:59;5.68;;;1.55;;
7359;SDS011;3720;48.274;7.796;2023-12-20T11:00:33;5.80;;;1.70;;
7359;SDS011;3720;48.274;7.796;2023-12-20T11:03:10;6.57;;;1.40;;
7359;SDS011;3720;48.274;7.796;2023-12-20T11:05:44;8.82;;;1.80;;
7359;SDS011;3720;48.274;7.796;2023-12-20T11:08:25;7.88;;;1.60;;
7359;SDS011;3720;48.274;7.796;2023-12-20T11:10:59;5.00;;;1.80;;
7359;SDS011;3720;48.274;7.796;2023-12-20T11:13:37;5.82;;;1.80;;
7359;SDS011;3720;48.274;7.796;2023-12-20T11:16:16;11.40;;;1.63;;
7359;SDS011;3720;48.274;7.796;2023-12-20T11:18:48;6.32;;;1.45;;
7359;SDS011;3720;48.274;7.796;2023-12-20T11:21:22;4.95;;;1.25;;
7359;SDS011;3720;48.274;7.796;2023-12-20T11:23:55;5.80;;;1.55;;
7359;SDS011;3720;48.274;7.796;2023-12-20T11:26:27;6.57;;;1.63;;
7359;SDS011;3720;48.274;7.796;2023-12-20T11:32:33;3.80;;;1.33;;
7359;SDS011;3720;48.274;7.796;2023-12-20T11:35:18;4.97;;;1.30;;
7359;SDS011;3720;48.274;7.796;2023-12-20T11:37:50;6.40;;;1.60;;
7359;SDS011;3720;48.274;7.796;2023-12-20T11:40:23;7.07;;;1.73;;
7359;SDS011;3720;48.274;7.796;2023-12-20T11:42:55;6.53;;;1.55;;
7359;SDS011;3720;48.274;7.796;2023-12-20T11:45:27;7.32;;;1.63;;
7359;SDS011;3720;48.274;7.796;2023-12-20T11:48:01;6.13;;;1.40;;
7359;SDS011;3720;48.274;7.796;2023-12-20T11:50:33;6.30;;;1.75;;
7359;SDS011;3720;48.274;7.796;2023-12-20T11:53:05;6.28;;;1.50;;
7359;SDS011;3720;48.274;7.796;2023-12-20T11:55:37;5.82;;;1.40;;
7359;SDS011;3720;48.274;7.796;2023-12-20T11:58:08;6.90;;;1.67;;
7359;SDS011;3720;48.274;7.796;2023-12-20T12:00:41;6.95;;;1.70;;
7359;SDS011;3720;48.274;7.796;2023-12-20T12:03:15;5.43;;;1.40;;
7359;SDS011;3720;48.274;7.796;2023-12-20T12:05:48;5.78;;;1.42;;
7359;SDS011;3720;48.274;7.796;2023-12-20T12:08:19;5.97;;;1.40;;
7359;SDS011;3720;48.274;7.796;2023-12-20T12:10:51;10.98;;;1.98;;
7359;SDS011;3720;48.274;7.796;2023-12-20T12:13:23;8.80;;;1.73;;
7359;SDS011;3720;48.274;7.796;2023-12-20T12:15:57;7.38;;;2.00;;
7359;SDS011;3720;48.274;7.796;2023-12-20T12:18:31;7.38;;;1.60;;
7359;SDS011;3720;48.274;7.796;2023-12-20T12:21:03;8.23;;;1.70;;
7359;SDS011;3720;48.274;7.796;2023-12-20T12:23:35;5.90;;;1.67;;
7359;SDS011;3720;48.274;7.796;2023-12-20T12:26:07;8.23;;;1.73;;
7359;SDS011;3720;48.274;7.796;2023-12-20T12:28:39;8.20;;;1.55;;
7359;SDS011;3720;48.274;7.796;2023-12-20T12:31:13;5.95;;;1.38;;
7359;SDS011;3720;48.274;7.796;2023-12-20T12:33:47;4.95;;;1.65;;
7359;SDS011;3720;48.274;7.796;2023-12-20T12:36:19;6.13;;;1.42;;
7359;SDS011;3720;48.274;7.796;2023-12-20T12:38:51;8.07;;;1.50;;
7359;SDS011;3720;48.274;7.796;2023-12-20T12:41:23;7.82;;;1.73;;
7359;SDS011;3720;48.274;7.796;2023-12-20T12:43:54;7.20;;;1.63;;
7359;SDS011;3720;48.274;7.796;2023-12-20T12:46:26;4.63;;;1.30;;
7359;SDS011;3720;48.274;7.796;2023-12-20T12:48:59;8.57;;;1.50;;
7359;SDS011;3720;48.274;7.796;2023-12-20T12:51:31;6.32;;;1.55;;
7359;SDS011;3720;48.274;7.796;2023-12-20T12:54:03;7.40;;;1.50;;
7359;SDS011;3720;48.274;7.796;2023-12-20T12:56:35;6.88;;;1.60;;
7359;SDS011;3720;48.274;7.796;2023-12-20T12:59:07;8.38;;;1.60;;
7359;SDS011;3720;48.274;7.796;2023-12-20T13:01:39;8.07;;;1.60;;
7359;SDS011;3720;48.274;7.796;2023-12-20T13:04:12;5.53;;;1.85;;
7359;SDS011;3720;48.274;7.796;2023-12-20T13:06:44;7.30;;;1.52;;
7359;SDS011;3720;48.274;7.796;2023-12-20T13:09:17;6.10;;;1.77;;
7359;SDS011;3720;48.274;7.796;2023-12-20T13:11:49;7.57;;;1.60;;
7359;SDS011;3720;48.274;7.796;2023-12-20T13:14:21;6.70;;;1.50;;
7359;SDS011;3720;48.274;7.796;2023-12-20T13:16:52;8.55;;;1.70;;
7359;SDS011;3720;48.274;7.796;2023-12-20T13:19:26;7.15;;;1.75;;
7359;SDS011;3720;48.274;7.796;2023-12-20T13:21:58;9.15;;;1.30;;
7359;SDS011;3720;48.274;7.796;2023-12-20T13:24:30;6.80;;;1.60;;
7359;SDS011;3720;48.274;7.796;2023-12-20T13:27:02;6.38;;;1.40;;
7359;SDS011;3720;48.274;7.796;2023-12-20T13:29:34;5.65;;;1.38;;
7359;SDS011;3720;48.274;7.796;2023-12-20T13:32:06;7.20;;;1.75;;
7359;SDS011;3720;48.274;7.796;2023-12-20T13:34:39;8.27;;;1.40;;
7359;SDS011;3720;48.274;7.796;2023-12-20T13:37:11;4.93;;;1.40;;
7359;SDS011;3720;48.274;7.796;2023-12-20T13:39:43;8.00;;;1.50;;
7359;SDS011;3720;48.274;7.796;2023-12-20T13:42:16;6.72;;;1.50;;
7359;SDS011;3720;48.274;7.796;2023-12-20T13:44:47;7.15;;;1.50;;
7359;SDS011;3720;48.274;7.796;2023-12-20T13:47:19;7.70;;;1.42;;
7359;SDS011;3720;48.274;7.796;2023-12-20T13:49:52;7.22;;;1.77;;
7359;SDS011;3720;48.274;7.796;2023-12-20T13:52:26;5.90;;;1.50;;
7359;SDS011;3720;48.274;7.796;2023-12-20T13:54:58;8.25;;;1.65;;
7359;SDS011;3720;48.274;7.796;2023-12-20T13:57:29;7.13;;;1.52;;
7359;SDS011;3720;48.274;7.796;2023-12-20T14:00:01;7.75;;;2.05;;
7359;SDS011;3720;48.274;7.796;2023-12-20T14:02:33;7.07;;;1.50;;
7359;SDS011;3720;48.274;7.796;2023-12-20T14:05:08;6.53;;;1.60;;
7359;SDS011;3720;48.274;7.796;2023-12-20T14:07:40;6.32;;;1.88;;
7359;SDS011;3720;48.274;7.796;2023-12-20T14:10:15;7.50;;;1.48;;
7359;SDS011;3720;48.274;7.796;2023-12-20T14:12:47;7.25;;;1.50;;
7359;SDS011;3720;48.274;7.796;2023-12-20T14:15:19;7.35;;;1.40;;
7359;SDS011;3720;48.274;7.796;2023-12-20T14:17:51;5.15;;;1.35;;
7359;SDS011;3720;48.274;7.796;2023-12-20T14:20:24;4.93;;;1.38;;
7359;SDS011;3720;48.274;7.796;2023-12-20T14:22:56;5.57;;;1.30;;
7359;SDS011;3720;48.274;7.796;2023-12-20T14:25:28;6.47;;;1.83;;
7359;SDS011;3720;48.274;7.796;2023-12-20T14:28:01;4.65;;;1.33;;
7359;SDS011;3720;48.274;7.796;2023-12-20T14:30:33;3.60;;;1.27;;
7359;SDS011;3720;48.274;7.796;2023-12-20T14:33:06;5.43;;;1.38;;
7359;SDS011;3720;48.274;7.796;2023-12-20T14:35:40;5.70;;;1.25;;
7359;SDS011;3720;48.274;7.796;2023-12-20T14:38:12;4.25;;;1.10;;
7359;SDS011;3720;48.274;7.796;2023-12-20T14:40:45;5.45;;;1.20;;
7359;SDS011;3720;48.274;7.796;2023-12-20T14:43:17;5.63;;;1.50;;
7359;SDS011;3720;48.274;7.796;2023-12-20T14:45:49;5.30;;;1.30;;
7359;SDS011;3720;48.274;7.796;2023-12-20T14:48:21;3.80;;;1.10;;
7359;SDS011;3720;48.274;7.796;2023-12-20T14:50:54;4.32;;;1.10;;
7359;SDS011;3720;48.274;7.796;2023-12-20T14:53:26;6.25;;;1.20;;
7359;SDS011;3720;48.274;7.796;2023-12-20T14:55:58;4.57;;;1.10;;
7359;SDS011;3720;48.274;7.796;2023-12-20T14:58:30;5.32;;;1.33;;
7359;SDS011;3720;48.274;7.796;2023-12-20T15:01:02;6.60;;;1.33;;
7359;SDS011;3720;48.274;7.796;2023-12-20T15:03:34;7.43;;;1.40;;
7359;SDS011;3720;48.274;7.796;2023-12-20T15:06:07;3.63;;;1.00;;
7359;SDS011;3720;48.274;7.796;2023-12-20T15:08:41;4.40;;;1.10;;
7359;SDS011;3720;48.274;7.796;2023-12-20T15:11:13;6.47;;;1.17;;
7359;SDS011;3720;48.274;7.796;2023-12-20T15:13:45;5.63;;;1.33;;
7359;SDS011;3720;48.274;7.796;2023-12-20T15:16:24;3.33;;;1.08;;
7359;SDS011;3720;48.274;7.796;2023-12-20T15:18:56;4.15;;;1.10;;
7359;SDS011;3720;48.274;7.796;2023-12-20T15:21:30;5.72;;;1.27;;
7359;SDS011;3720;48.274;7.796;2023-12-20T15:24:04;3.00;;;1.00;;
7359;SDS011;3720;48.274;7.796;2023-12-20T15:26:43;2.67;;;1.10;;
7359;SDS011;3720;48.274;7.796;2023-12-20T15:29:15;5.47;;;1.25;;
7359;SDS011;3720;48.274;7.796;2023-12-20T15:31:47;5.00;;;1.10;;
7359;SDS011;3720;48.274;7.796;2023-12-20T15:34:19;5.30;;;1.10;;
7359;SDS011;3720;48.274;7.796;2023-12-20T15:36:53;5.93;;;1.35;;
7359;SDS011;3720;48.274;7.796;2023-12-20T15:39:25;5.07;;;1.10;;
7359;SDS011;3720;48.274;7.796;2023-12-20T15:41:57;4.63;;;1.33;;
7359;SDS011;3720;48.274;7.796;2023-12-20T15:44:29;3.92;;;1.00;;
7359;SDS011;3720;48.274;7.796;2023-12-20T15:47:01;4.18;;;1.10;;
7359;SDS011;3720;48.274;7.796;2023-12-20T15:49:33;5.78;;;1.15;;
7359;SDS011;3720;48.274;7.796;2023-12-20T15:52:06;5.10;;;0.95;;